sensor_id;sensor_type;location;lat;lon;timestamp;temperature;humidity
17489;DHT22;8861;52.644;4.734;2023-04-28T00:02:01;10.00;99.90
17489;DHT22;8861;52.644;4.734;2023-04-28T00:04:28;9.90;99.90
17489;DHT22;8861;52.644;4.734;2023-04-28T00:06:57;9.90;99.90
17489;DHT22;8861;52.644;4.734;2023-04-28T00:09:24;9.90;99.90
17489;DHT22;8861;52.644;4.734;2023-04-28T00:11:51;9.90;99.90
17489;DHT22;8861;52.644;4.734;2023-04-28T00:14:18;9.90;99.90
17489;DHT22;8861;52.644;4.734;2023-04-28T00:16:45;9.80;99.90
17489;DHT22;8861;52.644;4.734;2023-04-28T00:19:12;9.90;99.90
17489;DHT22;8861;52.644;4.734;2023-04-28T00:21:38;9.80;99.90
17489;DHT22;8861;52.644;4.734;2023-04-28T00:24:07;9.80;99.90
17489;DHT22;8861;52.644;4.734;2023-04-28T00:26:34;9.80;99.90
17489;DHT22;8861;52.644;4.734;2023-04-28T00:29:01;9.80;99.90
17489;DHT22;8861;52.644;4.734;2023-04-28T00:31:28;9.80;99.90
17489;DHT22;8861;52.644;4.734;2023-04-28T00:33:55;9.80;99.90
17489;DHT22;8861;52.644;4.734;2023-04-28T00:36:22;9.80;99.90
17489;DHT22;8861;52.644;4.734;2023-04-28T00:38:49;9.80;99.90
17489;DHT22;8861;52.644;4.734;2023-04-28T00:41:17;9.80;99.90
17489;DHT22;8861;52.644;4.734;2023-04-28T00:43:45;9.80;99.90
17489;DHT22;8861;52.644;4.734;2023-04-28T00:46:19;9.70;99.90
17489;DHT22;8861;52.644;4.734;2023-04-28T00:48:46;9.80;99.90
17489;DHT22;8861;52.644;4.734;2023-04-28T00:51:14;9.70;99.90
17489;DHT22;8861;52.644;4.734;2023-04-28T00:53:41;9.80;99.90
17489;DHT22;8861;52.644;4.734;2023-04-28T00:56:09;9.80;99.90
17489;DHT22;8861;52.644;4.734;2023-04-28T00:58:37;9.80;99.90
17489;DHT22;8861;52.644;4.734;2023-04-28T01:01:04;9.80;99.90
17489;DHT22;8861;52.644;4.734;2023-04-28T01:03:33;9.80;99.90
17489;DHT22;8861;52.644;4.734;2023-04-28T01:06:03;9.80;99.90
17489;DHT22;8861;52.644;4.734;2023-04-28T01:08:30;9.80;99.90
17489;DHT22;8861;52.644;4.734;2023-04-28T01:10:58;9.80;99.90
17489;DHT22;8861;52.644;4.734;2023-04-28T01:13:25;9.90;99.90
17489;DHT22;8861;52.644;4.734;2023-04-28T01:15:54;9.80;99.90
17489;DHT22;8861;52.644;4.734;2023-04-28T01:18:21;9.90;99.90
17489;DHT22;8861;52.644;4.734;2023-04-28T01:20:48;9.90;99.90
17489;DHT22;8861;52.644;4.734;2023-04-28T01:23:16;9.90;99.90
17489;DHT22;8861;52.644;4.734;2023-04-28T01:25:44;9.90;99.90
17489;DHT22;8861;52.644;4.734;2023-04-28T01:28:11;9.80;99.90
17489;DHT22;8861;52.644;4.734;2023-04-28T01:30:38;9.80;99.90
17489;DHT22;8861;52.644;4.734;2023-04-28T01:33:05;9.80;99.90
17489;DHT22;8861;52.644;4.734;2023-04-28T01:35:32;9.80;99.90
17489;DHT22;8861;52.644;4.734;2023-04-28T01:37:59;9.80;99.90
17489;DHT22;8861;52.644;4.734;2023-04-28T01:40:26;9.80;99.90
17489;DHT22;8861;52.644;4.734;2023-04-28T01:42:55;9.80;99.90
17489;DHT22;8861;52.644;4.734;2023-04-28T01:45:22;9.80;99.90
17489;DHT22;8861;52.644;4.734;2023-04-28T01:47:48;9.80;99.90
17489;DHT22;8861;52.644;4.734;2023-04-28T01:50:15;9.90;99.90
17489;DHT22;8861;52.644;4.734;2023-04-28T01:52:42;9.90;99.90
17489;DHT22;8861;52.644;4.734;2023-04-28T01:55:09;9.90;99.90
17489;DHT22;8861;52.644;4.734;2023-04-28T01:57:36;9.90;99.90
17489;DHT22;8861;52.644;4.734;2023-04-28T02:00:06;9.90;99.90
17489;DHT22;8861;52.644;4.734;2023-04-28T02:02:33;9.80;99.90
17489;DHT22;8861;52.644;4.734;2023-04-28T02:05:01;9.80;99.90
17489;DHT22;8861;52.644;4.734;2023-04-28T02:07:28;9.80;99.90
17489;DHT22;8861;52.644;4.734;2023-04-28T02:09:55;9.80;99.90
17489;DHT22;8861;52.644;4.734;2023-04-28T02:12:22;9.80;99.90
17489;DHT22;8861;52.644;4.734;2023-04-28T02:14:49;9.80;99.90
17489;DHT22;8861;52.644;4.734;2023-04-28T02:17:18;9.90;99.90
17489;DHT22;8861;52.644;4.734;2023-04-28T02:19:45;9.90;99.90
17489;DHT22;8861;52.644;4.734;2023-04-28T02:22:12;9.80;99.90
17489;DHT22;8861;52.644;4.734;2023-04-28T02:24:39;9.80;99.90
17489;DHT22;8861;52.644;4.734;2023-04-28T02:27:06;9.80;99.90
17489;DHT22;8861;52.644;4.734;2023-04-28T02:29:33;9.80;99.90
17489;DHT22;8861;52.644;4.734;2023-04-28T02:31:59;9.80;99.90
17489;DHT22;8861;52.644;4.734;2023-04-28T02:34:28;9.80;99.90
17489;DHT22;8861;52.644;4.734;2023-04-28T02:36:55;9.80;99.90
17489;DHT22;8861;52.644;4.734;2023-04-28T02:39:21;9.80;99.90
17489;DHT22;8861;52.644;4.734;2023-04-28T02:41:51;9.70;99.90
17489;DHT22;8861;52.644;4.734;2023-04-28T02:44:19;9.70;99.90
17489;DHT22;8861;52.644;4.734;2023-04-28T02:46:46;9.70;99.90
17489;DHT22;8861;52.644;4.734;2023-04-28T02:49:13;9.70;99.90
17489;DHT22;8861;52.644;4.734;2023-04-28T02:51:42;9.70;99.90
17489;DHT22;8861;52.644;4.734;2023-04-28T02:54:09;9.60;99.90
17489;DHT22;8861;52.644;4.734;2023-04-28T02:56:36;9.60;99.90
17489;DHT22;8861;52.644;4.734;2023-04-28T02:59:05;9.60;99.90
17489;DHT22;8861;52.644;4.734;2023-04-28T03:01:32;9.60;99.90
17489;DHT22;8861;52.644;4.734;2023-04-28T03:03:59;9.60;99.90
17489;DHT22;8861;52.644;4.734;2023-04-28T03:06:26;9.60;99.90
17489;DHT22;8861;52.644;4.734;2023-04-28T03:08:54;9.60;99.90
17489;DHT22;8861;52.644;4.734;2023-04-28T03:11:21;9.60;99.90
17489;DHT22;8861;52.644;4.734;2023-04-28T03:13:48;9.60;99.90
17489;DHT22;8861;52.644;4.734;2023-04-28T03:16:15;9.60;99.90
17489;DHT22;8861;52.644;4.734;2023-04-28T03:18:42;9.60;99.90
17489;DHT22;8861;52.644;4.734;2023-04-28T03:21:09;9.60;99.90
17489;DHT22;8861;52.644;4.734;2023-04-28T03:23:36;9.60;99.90
17489;DHT22;8861;52.644;4.734;2023-04-28T03:26:04;9.60;99.90
17489;DHT22;8861;52.644;4.734;2023-04-28T03:28:31;9.60;99.90
17489;DHT22;8861;52.644;4.734;2023-04-28T03:30:58;9.50;99.90
17489;DHT22;8861;52.644;4.734;2023-04-28T03:33:25;9.50;99.90
17489;DHT22;8861;52.644;4.734;2023-04-28T03:35:53;9.50;99.90
17489;DHT22;8861;52.644;4.734;2023-04-28T03:38:20;9.50;99.90
17489;DHT22;8861;52.644;4.734;2023-04-28T03:40:47;9.60;99.90
17489;DHT22;8861;52.644;4.734;2023-04-28T03:43:15;9.50;99.90
17489;DHT22;8861;52.644;4.734;2023-04-28T03:45:42;9.50;99.90
17489;DHT22;8861;52.644;4.734;2023-04-28T03:48:09;9.50;99.90
17489;DHT22;8861;52.644;4.734;2023-04-28T03:50:36;9.50;99.90
17489;DHT22;8861;52.644;4.734;2023-04-28T03:53:05;9.40;99.90
17489;DHT22;8861;52.644;4.734;2023-04-28T03:55:32;9.40;99.90
17489;DHT22;8861;52.644;4.734;2023-04-28T03:57:59;9.50;99.90
17489;DHT22;8861;52.644;4.734;2023-04-28T04:00:27;9.40;99.90
17489;DHT22;8861;52.644;4.734;2023-04-28T04:02:54;9.40;99.90
17489;DHT22;8861;52.644;4.734;2023-04-28T04:05:21;9.30;99.90
17489;DHT22;8861;52.644;4.734;2023-04-28T04:07:48;9.40;99.90
17489;DHT22;8861;52.644;4.734;2023-04-28T04:10:15;9.40;99.90
17489;DHT22;8861;52.644;4.734;2023-04-28T04:12:42;9.40;99.90
17489;DHT22;8861;52.644;4.734;2023-04-28T04:15:09;9.40;99.90
17489;DHT22;8861;52.644;4.734;2023-04-28T04:17:38;9.40;99.90
17489;DHT22;8861;52.644;4.734;2023-04-28T04:20:06;9.40;99.90
17489;DHT22;8861;52.644;4.734;2023-04-28T04:22:33;9.40;99.90
17489;DHT22;8861;52.644;4.734;2023-04-28T04:25:01;9.40;99.90
17489;DHT22;8861;52.644;4.734;2023-04-28T04:27:28;9.40;99.90
17489;DHT22;8861;52.644;4.734;2023-04-28T04:29:55;9.50;99.90
17489;DHT22;8861;52.644;4.734;2023-04-28T04:32:21;9.50;99.90
17489;DHT22;8861;52.644;4.734;2023-04-28T04:34:50;9.50;99.90
17489;DHT22;8861;52.644;4.734;2023-04-28T04:37:17;9.50;99.90
17489;DHT22;8861;52.644;4.734;2023-04-28T04:39:44;9.50;99.90
17489;DHT22;8861;52.644;4.734;2023-04-28T04:42:11;9.50;99.90
17489;DHT22;8861;52.644;4.734;2023-04-28T04:44:38;9.50;99.90
17489;DHT22;8861;52.644;4.734;2023-04-28T04:47:05;9.50;99.90
17489;DHT22;8861;52.644;4.734;2023-04-28T04:49:32;9.50;99.90
17489;DHT22;8861;52.644;4.734;2023-04-28T04:52:00;9.50;99.90
17489;DHT22;8861;52.644;4.734;2023-04-28T04:54:27;9.60;99.90
17489;DHT22;8861;52.644;4.734;2023-04-28T04:56:54;9.60;99.90
17489;DHT22;8861;52.644;4.734;2023-04-28T04:59:21;9.60;99.90
17489;DHT22;8861;52.644;4.734;2023-04-28T05:01:48;9.60;99.90
17489;DHT22;8861;52.644;4.734;2023-04-28T05:04:15;9.60;99.90
17489;DHT22;8861;52.644;4.734;2023-04-28T05:06:42;9.70;99.90
17489;DHT22;8861;52.644;4.734;2023-04-28T05:09:10;9.70;99.90
17489;DHT22;8861;52.644;4.734;2023-04-28T05:11:37;9.70;99.90
17489;DHT22;8861;52.644;4.734;2023-04-28T05:14:04;9.70;99.90
17489;DHT22;8861;52.644;4.734;2023-04-28T05:16:31;9.70;99.90
17489;DHT22;8861;52.644;4.734;2023-04-28T05:18:58;9.70;99.90
17489;DHT22;8861;52.644;4.734;2023-04-28T05:21:25;9.70;99.90
17489;DHT22;8861;52.644;4.734;2023-04-28T05:23:53;9.70;99.90
17489;DHT22;8861;52.644;4.734;2023-04-28T05:26:22;9.70;99.90
17489;DHT22;8861;52.644;4.734;2023-04-28T05:28:48;9.70;99.90
17489;DHT22;8861;52.644;4.734;2023-04-28T05:31:16;9.80;99.90
17489;DHT22;8861;52.644;4.734;2023-04-28T05:33:43;9.80;99.90
17489;DHT22;8861;52.644;4.734;2023-04-28T05:36:09;9.80;99.90
17489;DHT22;8861;52.644;4.734;2023-04-28T05:38:36;9.90;99.90
17489;DHT22;8861;52.644;4.734;2023-04-28T05:41:03;9.90;99.90
17489;DHT22;8861;52.644;4.734;2023-04-28T05:43:32;9.90;99.90
17489;DHT22;8861;52.644;4.734;2023-04-28T05:45:59;10.00;99.90
17489;DHT22;8861;52.644;4.734;2023-04-28T05:48:26;10.00;99.90
17489;DHT22;8861;52.644;4.734;2023-04-28T05:50:53;10.00;99.90
17489;DHT22;8861;52.644;4.734;2023-04-28T05:53:20;10.00;99.90
17489;DHT22;8861;52.644;4.734;2023-04-28T05:55:47;10.00;99.90
17489;DHT22;8861;52.644;4.734;2023-04-28T05:58:14;9.90;99.90
17489;DHT22;8861;52.644;4.734;2023-04-28T06:00:42;9.90;99.90
17489;DHT22;8861;52.644;4.734;2023-04-28T06:03:09;9.90;99.90
17489;DHT22;8861;52.644;4.734;2023-04-28T06:05:38;10.00;99.90
17489;DHT22;8861;52.644;4.734;2023-04-28T06:08:05;10.00;99.90
17489;DHT22;8861;52.644;4.734;2023-04-28T06:10:33;10.00;99.90
17489;DHT22;8861;52.644;4.734;2023-04-28T06:13:00;10.00;99.90
17489;DHT22;8861;52.644;4.734;2023-04-28T06:15:29;10.00;99.90
17489;DHT22;8861;52.644;4.734;2023-04-28T06:17:58;10.00;99.90
17489;DHT22;8861;52.644;4.734;2023-04-28T06:20:24;10.10;99.90
17489;DHT22;8861;52.644;4.734;2023-04-28T06:22:51;10.10;99.90
17489;DHT22;8861;52.644;4.734;2023-04-28T06:25:18;10.10;99.90
17489;DHT22;8861;52.644;4.734;2023-04-28T06:27:46;10.20;99.90
17489;DHT22;8861;52.644;4.734;2023-04-28T06:30:16;10.20;99.90
17489;DHT22;8861;52.644;4.734;2023-04-28T06:32:44;10.30;99.90
17489;DHT22;8861;52.644;4.734;2023-04-28T06:35:13;10.40;99.90
17489;DHT22;8861;52.644;4.734;2023-04-28T06:37:40;10.60;99.90
17489;DHT22;8861;52.644;4.734;2023-04-28T06:40:08;10.70;99.90
17489;DHT22;8861;52.644;4.734;2023-04-28T06:42:35;10.90;99.90
17489;DHT22;8861;52.644;4.734;2023-04-28T06:45:02;10.90;99.90
17489;DHT22;8861;52.644;4.734;2023-04-28T06:47:29;11.00;99.90
17489;DHT22;8861;52.644;4.734;2023-04-28T06:49:56;11.10;99.90
17489;DHT22;8861;52.644;4.734;2023-04-28T06:52:25;11.20;99.90
17489;DHT22;8861;52.644;4.734;2023-04-28T06:54:53;11.30;99.90
17489;DHT22;8861;52.644;4.734;2023-04-28T06:57:20;11.40;99.90
17489;DHT22;8861;52.644;4.734;2023-04-28T06:59:47;11.60;99.90
17489;DHT22;8861;52.644;4.734;2023-04-28T07:02:14;11.80;99.90
17489;DHT22;8861;52.644;4.734;2023-04-28T07:04:41;11.90;99.90
17489;DHT22;8861;52.644;4.734;2023-04-28T07:07:08;11.90;99.90
17489;DHT22;8861;52.644;4.734;2023-04-28T07:09:37;11.90;99.90
17489;DHT22;8861;52.644;4.734;2023-04-28T07:12:04;11.90;99.90
17489;DHT22;8861;52.644;4.734;2023-04-28T07:14:31;12.00;99.90
17489;DHT22;8861;52.644;4.734;2023-04-28T07:16:58;12.10;99.90
17489;DHT22;8861;52.644;4.734;2023-04-28T07:19:25;12.20;99.90
17489;DHT22;8861;52.644;4.734;2023-04-28T07:21:52;12.30;99.90
17489;DHT22;8861;52.644;4.734;2023-04-28T07:24:19;12.30;99.90
17489;DHT22;8861;52.644;4.734;2023-04-28T07:26:49;12.40;99.90
17489;DHT22;8861;52.644;4.734;2023-04-28T07:29:16;12.30;99.90
17489;DHT22;8861;52.644;4.734;2023-04-28T07:31:43;12.20;99.90
17489;DHT22;8861;52.644;4.734;2023-04-28T07:34:10;12.20;99.90
17489;DHT22;8861;52.644;4.734;2023-04-28T07:36:37;12.10;99.90
17489;DHT22;8861;52.644;4.734;2023-04-28T07:39:05;12.10;99.90
17489;DHT22;8861;52.644;4.734;2023-04-28T07:41:35;12.00;99.90
17489;DHT22;8861;52.644;4.734;2023-04-28T07:44:04;12.00;99.90
17489;DHT22;8861;52.644;4.734;2023-04-28T07:46:32;11.90;99.90
17489;DHT22;8861;52.644;4.734;2023-04-28T07:48:59;11.90;99.90
17489;DHT22;8861;52.644;4.734;2023-04-28T07:51:26;12.00;99.90
17489;DHT22;8861;52.644;4.734;2023-04-28T07:53:53;12.00;99.90
17489;DHT22;8861;52.644;4.734;2023-04-28T07:56:20;11.90;99.90
17489;DHT22;8861;52.644;4.734;2023-04-28T07:58:47;11.90;99.90
17489;DHT22;8861;52.644;4.734;2023-04-28T08:01:16;11.80;99.90
17489;DHT22;8861;52.644;4.734;2023-04-28T08:03:43;11.80;99.90
17489;DHT22;8861;52.644;4.734;2023-04-28T08:06:10;11.90;99.90
17489;DHT22;8861;52.644;4.734;2023-04-28T08:08:38;11.80;99.90
17489;DHT22;8861;52.644;4.734;2023-04-28T08:11:05;11.80;99.90
17489;DHT22;8861;52.644;4.734;2023-04-28T08:13:33;11.80;99.90
17489;DHT22;8861;52.644;4.734;2023-04-28T08:16:00;11.80;99.90
17489;DHT22;8861;52.644;4.734;2023-04-28T08:18:28;11.80;99.90
17489;DHT22;8861;52.644;4.734;2023-04-28T08:20:55;11.80;99.90
17489;DHT22;8861;52.644;4.734;2023-04-28T08:23:22;11.80;99.90
17489;DHT22;8861;52.644;4.734;2023-04-28T08:25:52;11.70;99.90
17489;DHT22;8861;52.644;4.734;2023-04-28T08:28:19;11.70;99.90
17489;DHT22;8861;52.644;4.734;2023-04-28T08:30:46;11.70;99.90
17489;DHT22;8861;52.644;4.734;2023-04-28T08:33:13;11.80;99.90
17489;DHT22;8861;52.644;4.734;2023-04-28T08:35:42;11.90;99.90
17489;DHT22;8861;52.644;4.734;2023-04-28T08:38:09;12.00;99.90
17489;DHT22;8861;52.644;4.734;2023-04-28T08:40:38;12.00;99.90
17489;DHT22;8861;52.644;4.734;2023-04-28T08:43:07;12.10;99.90
17489;DHT22;8861;52.644;4.734;2023-04-28T08:45:40;12.30;99.90
17489;DHT22;8861;52.644;4.734;2023-04-28T08:48:13;12.20;99.90
17489;DHT22;8861;52.644;4.734;2023-04-28T08:50:48;12.30;99.90
17489;DHT22;8861;52.644;4.734;2023-04-28T08:53:21;12.30;99.90
17489;DHT22;8861;52.644;4.734;2023-04-28T08:55:51;12.40;99.90
17489;DHT22;8861;52.644;4.734;2023-04-28T08:58:21;12.40;99.90
17489;DHT22;8861;52.644;4.734;2023-04-28T09:00:48;12.50;99.90
17489;DHT22;8861;52.644;4.734;2023-04-28T09:03:15;12.60;99.90
17489;DHT22;8861;52.644;4.734;2023-04-28T09:05:44;12.60;99.90
17489;DHT22;8861;52.644;4.734;2023-04-28T09:08:11;12.60;99.90
17489;DHT22;8861;52.644;4.734;2023-04-28T09:10:38;12.60;99.90
17489;DHT22;8861;52.644;4.734;2023-04-28T09:13:06;12.60;99.90
17489;DHT22;8861;52.644;4.734;2023-04-28T09:15:34;12.60;99.90
17489;DHT22;8861;52.644;4.734;2023-04-28T09:18:03;12.60;99.90
17489;DHT22;8861;52.644;4.734;2023-04-28T09:20:31;12.50;99.90
17489;DHT22;8861;52.644;4.734;2023-04-28T09:23:14;12.50;99.90
17489;DHT22;8861;52.644;4.734;2023-04-28T09:25:58;12.40;99.90
17489;DHT22;8861;52.644;4.734;2023-04-28T09:28:25;12.20;99.90
17489;DHT22;8861;52.644;4.734;2023-04-28T09:30:52;12.10;99.90
17489;DHT22;8861;52.644;4.734;2023-04-28T09:33:19;12.00;99.90
17489;DHT22;8861;52.644;4.734;2023-04-28T09:35:46;11.90;99.90
17489;DHT22;8861;52.644;4.734;2023-04-28T09:38:15;11.90;99.90
17489;DHT22;8861;52.644;4.734;2023-04-28T09:40:58;11.90;99.90
17489;DHT22;8861;52.644;4.734;2023-04-28T09:43:28;11.90;99.90
17489;DHT22;8861;52.644;4.734;2023-04-28T09:45:56;12.00;99.90
17489;DHT22;8861;52.644;4.734;2023-04-28T09:48:27;12.00;99.90
17489;DHT22;8861;52.644;4.734;2023-04-28T09:50:55;12.20;99.90
17489;DHT22;8861;52.644;4.734;2023-04-28T09:53:25;12.30;99.90
17489;DHT22;8861;52.644;4.734;2023-04-28T09:55:53;12.50;99.90
17489;DHT22;8861;52.644;4.734;2023-04-28T09:58:22;12.60;99.90
17489;DHT22;8861;52.644;4.734;2023-04-28T10:00:52;12.70;99.90
17489;DHT22;8861;52.644;4.734;2023-04-28T10:03:21;12.80;99.90
17489;DHT22;8861;52.644;4.734;2023-04-28T10:05:49;12.80;99.90
17489;DHT22;8861;52.644;4.734;2023-04-28T10:08:18;12.90;99.90
17489;DHT22;8861;52.644;4.734;2023-04-28T10:10:48;12.90;99.90
17489;DHT22;8861;52.644;4.734;2023-04-28T10:13:16;12.80;99.90
17489;DHT22;8861;52.644;4.734;2023-04-28T10:15:44;12.80;99.90
17489;DHT22;8861;52.644;4.734;2023-04-28T10:18:11;12.80;99.90
17489;DHT22;8861;52.644;4.734;2023-04-28T10:20:41;12.80;99.90
17489;DHT22;8861;52.644;4.734;2023-04-28T10:23:32;12.80;99.90
17489;DHT22;8861;52.644;4.734;2023-04-28T10:26:02;12.80;99.90
17489;DHT22;8861;52.644;4.734;2023-04-28T10:28:30;12.80;99.90
17489;DHT22;8861;52.644;4.734;2023-04-28T10:31:18;12.90;99.90
17489;DHT22;8861;52.644;4.734;2023-04-28T10:33:48;12.90;99.90
17489;DHT22;8861;52.644;4.734;2023-04-28T10:36:48;13.00;99.90
17489;DHT22;8861;52.644;4.734;2023-04-28T10:39:17;13.10;99.90
17489;DHT22;8861;52.644;4.734;2023-04-28T10:41:46;13.00;99.90
17489;DHT22;8861;52.644;4.734;2023-04-28T10:44:40;13.00;99.90
17489;DHT22;8861;52.644;4.734;2023-04-28T10:47:08;13.00;99.90
17489;DHT22;8861;52.644;4.734;2023-04-28T10:50:04;13.00;99.90
17489;DHT22;8861;52.644;4.734;2023-04-28T10:52:50;13.10;99.90
17489;DHT22;8861;52.644;4.734;2023-04-28T10:55:31;13.10;99.90
17489;DHT22;8861;52.644;4.734;2023-04-28T10:58:32;13.20;99.90
17489;DHT22;8861;52.644;4.734;2023-04-28T11:01:24;13.20;99.90
17489;DHT22;8861;52.644;4.734;2023-04-28T11:03:51;13.20;99.90
17489;DHT22;8861;52.644;4.734;2023-04-28T11:06:25;13.20;99.90
17489;DHT22;8861;52.644;4.734;2023-04-28T11:08:53;13.10;99.90
17489;DHT22;8861;52.644;4.734;2023-04-28T11:11:23;13.00;99.90
17489;DHT22;8861;52.644;4.734;2023-04-28T11:13:53;13.00;99.90
17489;DHT22;8861;52.644;4.734;2023-04-28T11:16:23;12.90;99.90
17489;DHT22;8861;52.644;4.734;2023-04-28T11:18:56;12.90;99.90
17489;DHT22;8861;52.644;4.734;2023-04-28T11:21:25;13.00;99.90
17489;DHT22;8861;52.644;4.734;2023-04-28T11:23:54;13.10;99.90
17489;DHT22;8861;52.644;4.734;2023-04-28T11:26:21;13.10;99.90
17489;DHT22;8861;52.644;4.734;2023-04-28T11:28:52;13.00;99.90
17489;DHT22;8861;52.644;4.734;2023-04-28T11:31:20;13.10;99.90
17489;DHT22;8861;52.644;4.734;2023-04-28T11:33:55;13.20;99.90
17489;DHT22;8861;52.644;4.734;2023-04-28T11:36:28;13.40;99.90
17489;DHT22;8861;52.644;4.734;2023-04-28T11:38:56;13.50;99.90
17489;DHT22;8861;52.644;4.734;2023-04-28T11:41:23;13.60;99.90
17489;DHT22;8861;52.644;4.734;2023-04-28T11:43:52;13.50;99.90
17489;DHT22;8861;52.644;4.734;2023-04-28T11:46:20;13.50;99.90
17489;DHT22;8861;52.644;4.734;2023-04-28T11:48:48;13.30;99.90
17489;DHT22;8861;52.644;4.734;2023-04-28T11:51:43;13.30;99.90
17489;DHT22;8861;52.644;4.734;2023-04-28T11:54:11;13.20;99.90
17489;DHT22;8861;52.644;4.734;2023-04-28T11:56:41;13.20;99.90
17489;DHT22;8861;52.644;4.734;2023-04-28T11:59:11;13.10;99.90
17489;DHT22;8861;52.644;4.734;2023-04-28T12:01:46;13.10;99.90
17489;DHT22;8861;52.644;4.734;2023-04-28T12:04:14;13.20;99.90
17489;DHT22;8861;52.644;4.734;2023-04-28T12:07:00;13.30;99.90
17489;DHT22;8861;52.644;4.734;2023-04-28T12:09:27;13.40;99.90
17489;DHT22;8861;52.644;4.734;2023-04-28T12:11:55;13.40;99.90
17489;DHT22;8861;52.644;4.734;2023-04-28T12:14:24;13.50;99.90
17489;DHT22;8861;52.644;4.734;2023-04-28T12:16:51;13.50;99.90
17489;DHT22;8861;52.644;4.734;2023-04-28T12:19:18;13.60;99.90
17489;DHT22;8861;52.644;4.734;2023-04-28T12:22:03;13.70;99.90
17489;DHT22;8861;52.644;4.734;2023-04-28T12:24:30;13.80;99.90
17489;DHT22;8861;52.644;4.734;2023-04-28T12:27:17;13.70;99.90
17489;DHT22;8861;52.644;4.734;2023-04-28T12:29:47;13.70;99.90
17489;DHT22;8861;52.644;4.734;2023-04-28T12:32:15;13.80;99.90
17489;DHT22;8861;52.644;4.734;2023-04-28T12:34:44;13.80;99.90
17489;DHT22;8861;52.644;4.734;2023-04-28T12:37:11;13.80;99.90
17489;DHT22;8861;52.644;4.734;2023-04-28T12:39:40;13.70;99.90
17489;DHT22;8861;52.644;4.734;2023-04-28T12:42:07;13.60;99.90
17489;DHT22;8861;52.644;4.734;2023-04-28T12:44:35;13.70;99.90
17489;DHT22;8861;52.644;4.734;2023-04-28T12:47:05;13.70;99.90
17489;DHT22;8861;52.644;4.734;2023-04-28T12:49:33;13.80;99.90
17489;DHT22;8861;52.644;4.734;2023-04-28T12:52:00;13.90;99.90
17489;DHT22;8861;52.644;4.734;2023-04-28T12:54:27;14.00;99.90
17489;DHT22;8861;52.644;4.734;2023-04-28T12:56:54;14.00;99.90
17489;DHT22;8861;52.644;4.734;2023-04-28T12:59:22;14.10;99.90
17489;DHT22;8861;52.644;4.734;2023-04-28T13:01:49;14.20;99.90
17489;DHT22;8861;52.644;4.734;2023-04-28T13:04:18;14.30;99.90
17489;DHT22;8861;52.644;4.734;2023-04-28T13:06:46;14.30;99.90
17489;DHT22;8861;52.644;4.734;2023-04-28T13:09:14;14.30;99.90
17489;DHT22;8861;52.644;4.734;2023-04-28T13:11:41;14.40;99.90
17489;DHT22;8861;52.644;4.734;2023-04-28T13:14:08;14.40;99.90
17489;DHT22;8861;52.644;4.734;2023-04-28T13:16:35;14.50;99.90
17489;DHT22;8861;52.644;4.734;2023-04-28T13:19:03;14.60;99.90
17489;DHT22;8861;52.644;4.734;2023-04-28T13:21:35;14.60;99.90
17489;DHT22;8861;52.644;4.734;2023-04-28T13:24:03;14.60;99.90
17489;DHT22;8861;52.644;4.734;2023-04-28T13:26:30;14.60;99.90
17489;DHT22;8861;52.644;4.734;2023-04-28T13:28:57;14.70;99.90
17489;DHT22;8861;52.644;4.734;2023-04-28T13:31:25;14.60;99.90
17489;DHT22;8861;52.644;4.734;2023-04-28T13:33:52;14.50;99.90
17489;DHT22;8861;52.644;4.734;2023-04-28T13:36:19;14.30;99.90
17489;DHT22;8861;52.644;4.734;2023-04-28T13:38:47;14.20;99.90
17489;DHT22;8861;52.644;4.734;2023-04-28T13:41:15;14.10;99.90
17489;DHT22;8861;52.644;4.734;2023-04-28T13:43:42;14.10;99.90
17489;DHT22;8861;52.644;4.734;2023-04-28T13:46:09;14.20;99.90
17489;DHT22;8861;52.644;4.734;2023-04-28T13:48:37;14.30;99.90
17489;DHT22;8861;52.644;4.734;2023-04-28T13:51:05;14.50;99.90
17489;DHT22;8861;52.644;4.734;2023-04-28T13:53:34;14.60;99.90
17489;DHT22;8861;52.644;4.734;2023-04-28T13:56:03;14.70;99.90
17489;DHT22;8861;52.644;4.734;2023-04-28T13:58:30;14.70;99.90
17489;DHT22;8861;52.644;4.734;2023-04-28T14:00:57;14.70;99.90
17489;DHT22;8861;52.644;4.734;2023-04-28T14:03:25;14.60;99.90
17489;DHT22;8861;52.644;4.734;2023-04-28T14:05:54;14.50;99.90
17489;DHT22;8861;52.644;4.734;2023-04-28T14:08:22;14.40;99.90
17489;DHT22;8861;52.644;4.734;2023-04-28T14:10:50;14.40;99.90
17489;DHT22;8861;52.644;4.734;2023-04-28T14:13:19;14.30;99.90
17489;DHT22;8861;52.644;4.734;2023-04-28T14:15:46;14.30;99.90
17489;DHT22;8861;52.644;4.734;2023-04-28T14:18:13;14.40;99.90
17489;DHT22;8861;52.644;4.734;2023-04-28T14:20:40;14.60;99.90
17489;DHT22;8861;52.644;4.734;2023-04-28T14:23:08;14.70;99.90
17489;DHT22;8861;52.644;4.734;2023-04-28T14:25:35;14.80;99.90
17489;DHT22;8861;52.644;4.734;2023-04-28T14:28:03;14.90;99.90
17489;DHT22;8861;52.644;4.734;2023-04-28T14:30:31;14.90;99.90
17489;DHT22;8861;52.644;4.734;2023-04-28T14:32:58;14.90;99.90
17489;DHT22;8861;52.644;4.734;2023-04-28T14:35:25;15.00;99.90
17489;DHT22;8861;52.644;4.734;2023-04-28T14:37:52;15.00;99.90
17489;DHT22;8861;52.644;4.734;2023-04-28T14:40:19;15.00;99.90
17489;DHT22;8861;52.644;4.734;2023-04-28T14:42:46;14.90;99.90
17489;DHT22;8861;52.644;4.734;2023-04-28T14:45:13;14.70;99.90
17489;DHT22;8861;52.644;4.734;2023-04-28T14:47:42;14.50;99.90
17489;DHT22;8861;52.644;4.734;2023-04-28T14:50:09;14.30;99.90
17489;DHT22;8861;52.644;4.734;2023-04-28T14:52:37;14.20;99.90
17489;DHT22;8861;52.644;4.734;2023-04-28T14:55:04;14.10;99.90
17489;DHT22;8861;52.644;4.734;2023-04-28T14:57:31;14.30;99.90
17489;DHT22;8861;52.644;4.734;2023-04-28T14:59:59;14.40;99.90
17489;DHT22;8861;52.644;4.734;2023-04-28T15:02:26;14.50;99.90
17489;DHT22;8861;52.644;4.734;2023-04-28T15:04:55;14.50;99.90
17489;DHT22;8861;52.644;4.734;2023-04-28T15:07:23;14.40;99.90
17489;DHT22;8861;52.644;4.734;2023-04-28T15:09:52;14.30;99.90
17489;DHT22;8861;52.644;4.734;2023-04-28T15:12:19;14.20;99.90
17489;DHT22;8861;52.644;4.734;2023-04-28T15:14:46;14.10;99.90
17489;DHT22;8861;52.644;4.734;2023-04-28T15:17:13;13.90;99.90
17489;DHT22;8861;52.644;4.734;2023-04-28T15:19:41;13.80;99.90
17489;DHT22;8861;52.644;4.734;2023-04-28T15:22:09;13.90;99.90
17489;DHT22;8861;52.644;4.734;2023-04-28T15:24:36;13.90;99.90
17489;DHT22;8861;52.644;4.734;2023-04-28T15:27:03;13.90;99.90
17489;DHT22;8861;52.644;4.734;2023-04-28T15:29:30;13.80;99.90
17489;DHT22;8861;52.644;4.734;2023-04-28T15:31:57;13.70;99.90
17489;DHT22;8861;52.644;4.734;2023-04-28T15:34:24;13.70;99.90
17489;DHT22;8861;52.644;4.734;2023-04-28T15:36:51;13.50;99.90
17489;DHT22;8861;52.644;4.734;2023-04-28T15:39:20;13.50;99.90
17489;DHT22;8861;52.644;4.734;2023-04-28T15:41:47;13.50;99.90
17489;DHT22;8861;52.644;4.734;2023-04-28T15:44:14;13.50;99.90
17489;DHT22;8861;52.644;4.734;2023-04-28T15:46:41;13.40;99.90
17489;DHT22;8861;52.644;4.734;2023-04-28T15:49:09;13.50;99.90
17489;DHT22;8861;52.644;4.734;2023-04-28T15:51:36;13.50;99.90
17489;DHT22;8861;52.644;4.734;2023-04-28T15:54:03;13.50;99.90
17489;DHT22;8861;52.644;4.734;2023-04-28T15:56:33;13.50;99.90
17489;DHT22;8861;52.644;4.734;2023-04-28T15:59:00;13.50;99.90
17489;DHT22;8861;52.644;4.734;2023-04-28T16:01:27;13.60;99.90